sensor_id;sensor_type;location;lat;lon;timestamp;P1;durP1;ratioP1;P2;durP2;ratioP2
75847;SDS011;65750;47.540;19.090;2023-06-22T00:02:03;4.57;;;3.20;;
75847;SDS011;65750;47.540;19.090;2023-06-22T00:04:32;4.07;;;3.28;;
75847;SDS011;65750;47.540;19.090;2023-06-22T00:06:59;5.00;;;3.33;;
75847;SDS011;65750;47.540;19.090;2023-06-22T00:09:26;4.15;;;2.97;;
75847;SDS011;65750;47.540;19.090;2023-06-22T00:11:53;3.87;;;3.40;;
75847;SDS011;65750;47.540;19.090;2023-06-22T00:14:20;3.93;;;3.13;;
75847;SDS011;65750;47.540;19.090;2023-06-22T00:16:47;4.47;;;3.35;;
75847;SDS011;65750;47.540;19.090;2023-06-22T00:19:14;4.15;;;3.45;;
75847;SDS011;65750;47.540;19.090;2023-06-22T00:21:42;4.35;;;3.10;;
75847;SDS011;65750;47.540;19.090;2023-06-22T00:24:12;4.20;;;3.20;;
75847;SDS011;65750;47.540;19.090;2023-06-22T00:26:39;4.03;;;3.50;;
75847;SDS011;65750;47.540;19.090;2023-06-22T00:29:07;3.90;;;3.17;;
75847;SDS011;65750;47.540;19.090;2023-06-22T00:31:34;3.90;;;3.33;;
75847;SDS011;65750;47.540;19.090;2023-06-22T00:34:01;4.25;;;3.30;;
75847;SDS011;65750;47.540;19.090;2023-06-22T00:36:28;3.97;;;3.30;;
75847;SDS011;65750;47.540;19.090;2023-06-22T00:38:57;4.17;;;3.10;;
75847;SDS011;65750;47.540;19.090;2023-06-22T00:41:24;3.80;;;2.67;;
75847;SDS011;65750;47.540;19.090;2023-06-22T00:43:53;4.12;;;2.87;;
75847;SDS011;65750;47.540;19.090;2023-06-22T00:46:20;3.80;;;3.10;;
75847;SDS011;65750;47.540;19.090;2023-06-22T00:48:48;4.15;;;3.50;;
75847;SDS011;65750;47.540;19.090;2023-06-22T00:51:15;3.83;;;2.97;;
75847;SDS011;65750;47.540;19.090;2023-06-22T00:53:42;3.95;;;3.10;;
75847;SDS011;65750;47.540;19.090;2023-06-22T00:56:11;4.82;;;3.00;;
75847;SDS011;65750;47.540;19.090;2023-06-22T00:58:39;3.60;;;2.90;;
75847;SDS011;65750;47.540;19.090;2023-06-22T01:01:06;4.45;;;3.20;;
75847;SDS011;65750;47.540;19.090;2023-06-22T01:03:34;4.17;;;3.00;;
75847;SDS011;65750;47.540;19.090;2023-06-22T01:06:06;4.10;;;2.90;;
75847;SDS011;65750;47.540;19.090;2023-06-22T01:08:37;4.22;;;2.85;;
75847;SDS011;65750;47.540;19.090;2023-06-22T01:11:16;4.50;;;3.35;;
75847;SDS011;65750;47.540;19.090;2023-06-22T01:13:45;4.40;;;3.20;;
75847;SDS011;65750;47.540;19.090;2023-06-22T01:16:17;3.60;;;3.00;;
75847;SDS011;65750;47.540;19.090;2023-06-22T01:18:49;3.87;;;2.80;;
75847;SDS011;65750;47.540;19.090;2023-06-22T01:21:19;4.10;;;3.10;;
75847;SDS011;65750;47.540;19.090;2023-06-22T01:23:51;3.95;;;3.00;;
75847;SDS011;65750;47.540;19.090;2023-06-22T01:26:28;3.70;;;2.83;;
75847;SDS011;65750;47.540;19.090;2023-06-22T01:29:02;3.40;;;2.93;;
75847;SDS011;65750;47.540;19.090;2023-06-22T01:31:31;3.62;;;2.65;;
75847;SDS011;65750;47.540;19.090;2023-06-22T01:34:01;3.37;;;2.95;;
75847;SDS011;65750;47.540;19.090;2023-06-22T01:36:31;3.65;;;3.10;;
75847;SDS011;65750;47.540;19.090;2023-06-22T01:38:59;3.70;;;2.95;;
75847;SDS011;65750;47.540;19.090;2023-06-22T01:41:27;4.13;;;2.80;;
75847;SDS011;65750;47.540;19.090;2023-06-22T01:43:56;3.70;;;2.90;;
75847;SDS011;65750;47.540;19.090;2023-06-22T01:46:25;3.62;;;3.00;;
75847;SDS011;65750;47.540;19.090;2023-06-22T01:48:52;4.37;;;3.10;;
75847;SDS011;65750;47.540;19.090;2023-06-22T01:51:21;4.35;;;3.00;;
75847;SDS011;65750;47.540;19.090;2023-06-22T01:53:48;3.90;;;3.17;;
75847;SDS011;65750;47.540;19.090;2023-06-22T01:56:18;4.07;;;3.05;;
75847;SDS011;65750;47.540;19.090;2023-06-22T01:58:47;4.68;;;3.37;;
75847;SDS011;65750;47.540;19.090;2023-06-22T02:01:17;3.85;;;2.70;;
75847;SDS011;65750;47.540;19.090;2023-06-22T02:03:50;3.28;;;2.65;;
75847;SDS011;65750;47.540;19.090;2023-06-22T02:06:21;3.20;;;2.50;;
75847;SDS011;65750;47.540;19.090;2023-06-22T02:08:53;3.10;;;2.47;;
75847;SDS011;65750;47.540;19.090;2023-06-22T02:11:22;3.95;;;3.12;;
75847;SDS011;65750;47.540;19.090;2023-06-22T02:13:49;3.37;;;2.87;;
75847;SDS011;65750;47.540;19.090;2023-06-22T02:16:16;4.05;;;3.05;;
75847;SDS011;65750;47.540;19.090;2023-06-22T02:18:46;3.60;;;2.90;;
75847;SDS011;65750;47.540;19.090;2023-06-22T02:21:17;3.30;;;2.58;;
75847;SDS011;65750;47.540;19.090;2023-06-22T02:23:45;3.12;;;2.60;;
75847;SDS011;65750;47.540;19.090;2023-06-22T02:26:13;3.30;;;2.55;;
75847;SDS011;65750;47.540;19.090;2023-06-22T02:28:41;3.50;;;2.78;;
75847;SDS011;65750;47.540;19.090;2023-06-22T02:31:09;3.07;;;2.60;;
75847;SDS011;65750;47.540;19.090;2023-06-22T02:33:36;3.58;;;3.20;;
75847;SDS011;65750;47.540;19.090;2023-06-22T02:36:03;3.62;;;2.78;;
75847;SDS011;65750;47.540;19.090;2023-06-22T02:38:36;3.92;;;2.60;;
75847;SDS011;65750;47.540;19.090;2023-06-22T02:41:03;3.37;;;2.55;;
75847;SDS011;65750;47.540;19.090;2023-06-22T02:43:30;3.23;;;2.60;;
75847;SDS011;65750;47.540;19.090;2023-06-22T02:45:57;4.50;;;2.80;;
75847;SDS011;65750;47.540;19.090;2023-06-22T02:48:24;3.72;;;2.92;;
75847;SDS011;65750;47.540;19.090;2023-06-22T02:50:51;3.62;;;2.90;;
75847;SDS011;65750;47.540;19.090;2023-06-22T02:53:19;3.58;;;2.80;;
75847;SDS011;65750;47.540;19.090;2023-06-22T02:55:47;3.30;;;2.67;;
75847;SDS011;65750;47.540;19.090;2023-06-22T02:58:14;3.10;;;2.47;;
75847;SDS011;65750;47.540;19.090;2023-06-22T03:00:42;3.50;;;2.60;;
75847;SDS011;65750;47.540;19.090;2023-06-22T03:03:09;3.67;;;2.80;;
75847;SDS011;65750;47.540;19.090;2023-06-22T03:05:36;3.53;;;2.53;;
75847;SDS011;65750;47.540;19.090;2023-06-22T03:08:03;4.40;;;2.97;;
75847;SDS011;65750;47.540;19.090;2023-06-22T03:10:30;3.90;;;2.70;;
75847;SDS011;65750;47.540;19.090;2023-06-22T03:12:59;4.05;;;2.58;;
75847;SDS011;65750;47.540;19.090;2023-06-22T03:15:26;3.45;;;2.62;;
75847;SDS011;65750;47.540;19.090;2023-06-22T03:17:54;4.15;;;2.83;;
75847;SDS011;65750;47.540;19.090;2023-06-22T03:20:22;3.53;;;2.80;;
75847;SDS011;65750;47.540;19.090;2023-06-22T03:22:50;3.55;;;2.90;;
75847;SDS011;65750;47.540;19.090;2023-06-22T03:25:18;3.15;;;2.35;;
75847;SDS011;65750;47.540;19.090;2023-06-22T03:27:46;3.45;;;2.70;;
75847;SDS011;65750;47.540;19.090;2023-06-22T03:30:15;2.70;;;2.30;;
75847;SDS011;65750;47.540;19.090;2023-06-22T03:32:42;3.87;;;2.60;;
75847;SDS011;65750;47.540;19.090;2023-06-22T03:35:09;3.72;;;2.62;;
75847;SDS011;65750;47.540;19.090;2023-06-22T03:37:39;3.12;;;2.40;;
75847;SDS011;65750;47.540;19.090;2023-06-22T03:40:07;3.15;;;2.58;;
75847;SDS011;65750;47.540;19.090;2023-06-22T03:42:35;3.10;;;2.70;;
75847;SDS011;65750;47.540;19.090;2023-06-22T03:45:02;4.03;;;2.50;;
75847;SDS011;65750;47.540;19.090;2023-06-22T03:47:33;3.42;;;2.12;;
75847;SDS011;65750;47.540;19.090;2023-06-22T03:49:59;3.28;;;2.60;;
75847;SDS011;65750;47.540;19.090;2023-06-22T03:52:31;3.37;;;2.55;;
75847;SDS011;65750;47.540;19.090;2023-06-22T03:54:58;3.37;;;2.40;;
75847;SDS011;65750;47.540;19.090;2023-06-22T03:57:25;4.40;;;2.70;;
75847;SDS011;65750;47.540;19.090;2023-06-22T03:59:53;3.10;;;2.70;;
75847;SDS011;65750;47.540;19.090;2023-06-22T04:02:20;3.25;;;2.42;;
75847;SDS011;65750;47.540;19.090;2023-06-22T04:04:49;3.12;;;2.70;;
75847;SDS011;65750;47.540;19.090;2023-06-22T04:07:16;3.65;;;2.40;;
75847;SDS011;65750;47.540;19.090;2023-06-22T04:09:43;3.17;;;2.47;;
75847;SDS011;65750;47.540;19.090;2023-06-22T04:12:10;3.33;;;2.25;;
75847;SDS011;65750;47.540;19.090;2023-06-22T04:14:37;2.80;;;2.35;;
75847;SDS011;65750;47.540;19.090;2023-06-22T04:17:04;2.95;;;2.20;;
75847;SDS011;65750;47.540;19.090;2023-06-22T04:19:31;3.62;;;2.72;;
75847;SDS011;65750;47.540;19.090;2023-06-22T04:22:18;3.37;;;2.53;;
75847;SDS011;65750;47.540;19.090;2023-06-22T04:24:45;3.42;;;2.47;;
75847;SDS011;65750;47.540;19.090;2023-06-22T04:27:13;3.10;;;2.47;;
75847;SDS011;65750;47.540;19.090;2023-06-22T04:29:40;3.37;;;2.50;;
75847;SDS011;65750;47.540;19.090;2023-06-22T04:32:14;3.47;;;2.67;;
75847;SDS011;65750;47.540;19.090;2023-06-22T04:34:41;3.47;;;2.53;;
75847;SDS011;65750;47.540;19.090;2023-06-22T04:37:08;3.70;;;2.67;;
75847;SDS011;65750;47.540;19.090;2023-06-22T04:39:42;3.20;;;2.45;;
75847;SDS011;65750;47.540;19.090;2023-06-22T04:42:09;3.40;;;2.70;;
75847;SDS011;65750;47.540;19.090;2023-06-22T04:44:36;3.25;;;2.40;;
75847;SDS011;65750;47.540;19.090;2023-06-22T04:47:05;3.47;;;2.73;;
75847;SDS011;65750;47.540;19.090;2023-06-22T04:49:33;3.17;;;2.10;;
75847;SDS011;65750;47.540;19.090;2023-06-22T04:52:03;3.10;;;2.30;;
75847;SDS011;65750;47.540;19.090;2023-06-22T04:54:31;3.33;;;2.60;;
75847;SDS011;65750;47.540;19.090;2023-06-22T04:57:00;3.28;;;2.50;;
75847;SDS011;65750;47.540;19.090;2023-06-22T04:59:28;3.10;;;2.50;;
75847;SDS011;65750;47.540;19.090;2023-06-22T05:01:56;3.28;;;2.90;;
75847;SDS011;65750;47.540;19.090;2023-06-22T05:04:23;4.55;;;2.85;;
75847;SDS011;65750;47.540;19.090;2023-06-22T05:06:51;5.18;;;3.08;;
75847;SDS011;65750;47.540;19.090;2023-06-22T05:09:18;4.10;;;3.42;;
75847;SDS011;65750;47.540;19.090;2023-06-22T05:11:46;3.90;;;2.83;;
75847;SDS011;65750;47.540;19.090;2023-06-22T05:14:14;4.75;;;3.00;;
75847;SDS011;65750;47.540;19.090;2023-06-22T05:16:42;6.40;;;3.10;;
75847;SDS011;65750;47.540;19.090;2023-06-22T05:19:09;4.37;;;3.05;;
75847;SDS011;65750;47.540;19.090;2023-06-22T05:21:36;4.32;;;3.15;;
75847;SDS011;65750;47.540;19.090;2023-06-22T05:24:04;4.37;;;3.40;;
75847;SDS011;65750;47.540;19.090;2023-06-22T05:26:31;4.70;;;3.40;;
75847;SDS011;65750;47.540;19.090;2023-06-22T05:28:59;3.97;;;2.85;;
75847;SDS011;65750;47.540;19.090;2023-06-22T05:31:29;6.00;;;3.90;;
75847;SDS011;65750;47.540;19.090;2023-06-22T05:33:56;6.00;;;3.47;;
75847;SDS011;65750;47.540;19.090;2023-06-22T05:36:23;6.90;;;3.83;;
75847;SDS011;65750;47.540;19.090;2023-06-22T05:38:51;5.22;;;3.72;;
75847;SDS011;65750;47.540;19.090;2023-06-22T05:41:18;15.05;;;4.00;;
75847;SDS011;65750;47.540;19.090;2023-06-22T05:43:46;5.93;;;3.72;;
75847;SDS011;65750;47.540;19.090;2023-06-22T05:46:13;5.30;;;3.50;;
75847;SDS011;65750;47.540;19.090;2023-06-22T05:48:42;6.87;;;4.43;;
75847;SDS011;65750;47.540;19.090;2023-06-22T05:51:09;15.13;;;8.32;;
75847;SDS011;65750;47.540;19.090;2023-06-22T05:53:37;23.08;;;12.07;;
75847;SDS011;65750;47.540;19.090;2023-06-22T05:56:04;36.35;;;18.30;;
75847;SDS011;65750;47.540;19.090;2023-06-22T05:58:30;32.35;;;15.23;;
75847;SDS011;65750;47.540;19.090;2023-06-22T06:00:58;26.43;;;13.70;;
75847;SDS011;65750;47.540;19.090;2023-06-22T06:03:26;21.33;;;11.82;;
75847;SDS011;65750;47.540;19.090;2023-06-22T06:05:55;19.83;;;10.55;;
75847;SDS011;65750;47.540;19.090;2023-06-22T06:08:22;17.37;;;9.60;;
75847;SDS011;65750;47.540;19.090;2023-06-22T06:10:50;16.37;;;9.18;;
75847;SDS011;65750;47.540;19.090;2023-06-22T06:13:18;16.80;;;8.33;;
75847;SDS011;65750;47.540;19.090;2023-06-22T06:15:45;13.57;;;8.00;;
75847;SDS011;65750;47.540;19.090;2023-06-22T06:18:13;14.50;;;7.40;;
75847;SDS011;65750;47.540;19.090;2023-06-22T06:20:40;12.43;;;6.80;;
75847;SDS011;65750;47.540;19.090;2023-06-22T06:23:08;10.48;;;6.47;;
75847;SDS011;65750;47.540;19.090;2023-06-22T06:25:35;11.27;;;5.80;;
75847;SDS011;65750;47.540;19.090;2023-06-22T06:28:02;10.18;;;5.25;;
75847;SDS011;65750;47.540;19.090;2023-06-22T06:30:30;11.20;;;5.00;;
75847;SDS011;65750;47.540;19.090;2023-06-22T06:32:57;12.40;;;6.35;;
75847;SDS011;65750;47.540;19.090;2023-06-22T06:35:24;12.98;;;7.00;;
75847;SDS011;65750;47.540;19.090;2023-06-22T06:37:51;12.27;;;7.07;;
75847;SDS011;65750;47.540;19.090;2023-06-22T06:40:20;12.80;;;6.70;;
75847;SDS011;65750;47.540;19.090;2023-06-22T06:42:47;10.52;;;5.82;;
75847;SDS011;65750;47.540;19.090;2023-06-22T06:45:16;10.02;;;5.47;;
75847;SDS011;65750;47.540;19.090;2023-06-22T06:47:44;8.23;;;4.75;;
75847;SDS011;65750;47.540;19.090;2023-06-22T06:50:11;9.53;;;4.70;;
75847;SDS011;65750;47.540;19.090;2023-06-22T06:52:39;8.50;;;4.50;;
75847;SDS011;65750;47.540;19.090;2023-06-22T06:55:07;7.22;;;4.60;;
75847;SDS011;65750;47.540;19.090;2023-06-22T06:57:38;6.65;;;4.43;;
75847;SDS011;65750;47.540;19.090;2023-06-22T07:00:05;7.05;;;4.10;;
75847;SDS011;65750;47.540;19.090;2023-06-22T07:02:37;6.93;;;4.23;;
75847;SDS011;65750;47.540;19.090;2023-06-22T07:05:04;7.25;;;3.75;;
75847;SDS011;65750;47.540;19.090;2023-06-22T07:07:31;5.18;;;3.58;;
75847;SDS011;65750;47.540;19.090;2023-06-22T07:09:59;6.62;;;3.30;;
75847;SDS011;65750;47.540;19.090;2023-06-22T07:12:26;6.05;;;3.58;;
75847;SDS011;65750;47.540;19.090;2023-06-22T07:14:56;5.83;;;3.60;;
75847;SDS011;65750;47.540;19.090;2023-06-22T07:17:28;5.53;;;3.37;;
75847;SDS011;65750;47.540;19.090;2023-06-22T07:19:55;5.78;;;3.33;;
75847;SDS011;65750;47.540;19.090;2023-06-22T07:22:22;5.70;;;3.25;;
75847;SDS011;65750;47.540;19.090;2023-06-22T07:24:50;11.05;;;3.50;;
75847;SDS011;65750;47.540;19.090;2023-06-22T07:27:17;5.60;;;3.40;;
75847;SDS011;65750;47.540;19.090;2023-06-22T07:29:45;6.90;;;3.00;;
75847;SDS011;65750;47.540;19.090;2023-06-22T07:32:14;6.85;;;3.15;;
75847;SDS011;65750;47.540;19.090;2023-06-22T07:34:41;5.20;;;2.90;;
75847;SDS011;65750;47.540;19.090;2023-06-22T07:37:09;5.03;;;2.78;;
75847;SDS011;65750;47.540;19.090;2023-06-22T07:39:36;7.53;;;3.00;;
75847;SDS011;65750;47.540;19.090;2023-06-22T07:42:03;5.28;;;2.95;;
75847;SDS011;65750;47.540;19.090;2023-06-22T07:44:31;5.28;;;2.90;;
75847;SDS011;65750;47.540;19.090;2023-06-22T07:46:58;5.07;;;2.83;;
75847;SDS011;65750;47.540;19.090;2023-06-22T07:49:27;4.55;;;2.65;;
75847;SDS011;65750;47.540;19.090;2023-06-22T07:51:54;4.23;;;2.70;;
75847;SDS011;65750;47.540;19.090;2023-06-22T07:54:21;4.12;;;2.35;;
75847;SDS011;65750;47.540;19.090;2023-06-22T07:56:48;6.47;;;2.37;;
75847;SDS011;65750;47.540;19.090;2023-06-22T07:59:15;5.22;;;2.45;;
75847;SDS011;65750;47.540;19.090;2023-06-22T08:01:43;4.78;;;2.20;;
75847;SDS011;65750;47.540;19.090;2023-06-22T08:04:10;4.47;;;2.20;;
75847;SDS011;65750;47.540;19.090;2023-06-22T08:06:38;4.87;;;2.40;;
75847;SDS011;65750;47.540;19.090;2023-06-22T08:09:05;5.82;;;2.50;;
75847;SDS011;65750;47.540;19.090;2023-06-22T08:11:32;4.07;;;2.10;;
75847;SDS011;65750;47.540;19.090;2023-06-22T08:14:00;3.92;;;2.20;;
75847;SDS011;65750;47.540;19.090;2023-06-22T08:16:27;4.83;;;2.33;;
75847;SDS011;65750;47.540;19.090;2023-06-22T08:18:54;4.72;;;2.03;;
75847;SDS011;65750;47.540;19.090;2023-06-22T08:21:21;4.28;;;2.40;;
75847;SDS011;65750;47.540;19.090;2023-06-22T08:23:50;4.95;;;2.10;;
75847;SDS011;65750;47.540;19.090;2023-06-22T08:26:17;4.78;;;2.30;;
75847;SDS011;65750;47.540;19.090;2023-06-22T08:28:44;4.37;;;2.00;;
75847;SDS011;65750;47.540;19.090;2023-06-22T08:31:11;3.87;;;2.10;;
75847;SDS011;65750;47.540;19.090;2023-06-22T08:33:39;4.43;;;2.17;;
75847;SDS011;65750;47.540;19.090;2023-06-22T08:36:06;4.85;;;2.50;;
75847;SDS011;65750;47.540;19.090;2023-06-22T08:38:36;4.45;;;2.37;;
75847;SDS011;65750;47.540;19.090;2023-06-22T08:41:05;5.47;;;2.30;;
75847;SDS011;65750;47.540;19.090;2023-06-22T08:43:31;5.10;;;2.30;;
75847;SDS011;65750;47.540;19.090;2023-06-22T08:45:58;4.97;;;2.55;;
75847;SDS011;65750;47.540;19.090;2023-06-22T08:48:26;4.72;;;2.28;;
75847;SDS011;65750;47.540;19.090;2023-06-22T08:50:53;4.93;;;2.35;;
75847;SDS011;65750;47.540;19.090;2023-06-22T08:53:20;4.97;;;2.37;;
75847;SDS011;65750;47.540;19.090;2023-06-22T08:55:48;7.50;;;2.55;;
75847;SDS011;65750;47.540;19.090;2023-06-22T08:58:17;4.45;;;2.47;;
75847;SDS011;65750;47.540;19.090;2023-06-22T09:00:45;4.57;;;2.60;;
75847;SDS011;65750;47.540;19.090;2023-06-22T09:03:13;4.68;;;2.70;;
75847;SDS011;65750;47.540;19.090;2023-06-22T09:05:40;4.50;;;2.50;;
75847;SDS011;65750;47.540;19.090;2023-06-22T09:08:07;4.90;;;2.92;;
75847;SDS011;65750;47.540;19.090;2023-06-22T09:10:34;5.78;;;2.80;;
75847;SDS011;65750;47.540;19.090;2023-06-22T09:13:01;5.62;;;3.45;;
75847;SDS011;65750;47.540;19.090;2023-06-22T09:15:30;4.93;;;3.28;;
75847;SDS011;65750;47.540;19.090;2023-06-22T09:17:57;4.80;;;3.07;;
75847;SDS011;65750;47.540;19.090;2023-06-22T09:20:24;5.55;;;3.20;;
75847;SDS011;65750;47.540;19.090;2023-06-22T09:22:51;6.78;;;3.30;;
75847;SDS011;65750;47.540;19.090;2023-06-22T09:25:18;4.15;;;3.10;;
75847;SDS011;65750;47.540;19.090;2023-06-22T09:27:46;4.78;;;3.12;;
75847;SDS011;65750;47.540;19.090;2023-06-22T09:30:13;4.90;;;3.67;;
75847;SDS011;65750;47.540;19.090;2023-06-22T09:32:42;4.55;;;3.40;;
75847;SDS011;65750;47.540;19.090;2023-06-22T09:35:09;4.68;;;3.17;;
75847;SDS011;65750;47.540;19.090;2023-06-22T09:37:38;3.65;;;3.22;;
75847;SDS011;65750;47.540;19.090;2023-06-22T09:40:06;5.43;;;3.40;;
75847;SDS011;65750;47.540;19.090;2023-06-22T09:42:36;7.50;;;3.77;;
75847;SDS011;65750;47.540;19.090;2023-06-22T09:45:04;4.87;;;3.17;;
75847;SDS011;65750;47.540;19.090;2023-06-22T09:47:32;4.10;;;3.40;;
75847;SDS011;65750;47.540;19.090;2023-06-22T09:50:00;4.55;;;3.17;;
75847;SDS011;65750;47.540;19.090;2023-06-22T09:52:27;5.28;;;3.10;;
75847;SDS011;65750;47.540;19.090;2023-06-22T09:54:55;4.90;;;3.37;;
75847;SDS011;65750;47.540;19.090;2023-06-22T09:57:22;4.90;;;3.33;;
75847;SDS011;65750;47.540;19.090;2023-06-22T09:59:49;5.57;;;3.30;;
75847;SDS011;65750;47.540;19.090;2023-06-22T10:02:16;4.72;;;3.55;;
75847;SDS011;65750;47.540;19.090;2023-06-22T10:04:43;4.68;;;3.60;;
75847;SDS011;65750;47.540;19.090;2023-06-22T10:07:12;5.43;;;3.80;;
75847;SDS011;65750;47.540;19.090;2023-06-22T10:09:39;5.32;;;3.47;;
75847;SDS011;65750;47.540;19.090;2023-06-22T10:12:07;4.97;;;3.80;;
75847;SDS011;65750;47.540;19.090;2023-06-22T10:14:34;5.50;;;3.53;;
75847;SDS011;65750;47.540;19.090;2023-06-22T10:17:02;4.97;;;3.67;;
75847;SDS011;65750;47.540;19.090;2023-06-22T10:19:29;4.20;;;3.30;;
75847;SDS011;65750;47.540;19.090;2023-06-22T10:21:56;4.95;;;3.70;;
75847;SDS011;65750;47.540;19.090;2023-06-22T10:24:25;4.60;;;3.80;;
75847;SDS011;65750;47.540;19.090;2023-06-22T10:26:52;5.18;;;3.80;;
75847;SDS011;65750;47.540;19.090;2023-06-22T10:29:19;5.68;;;4.05;;
75847;SDS011;65750;47.540;19.090;2023-06-22T10:31:46;4.90;;;4.00;;
75847;SDS011;65750;47.540;19.090;2023-06-22T10:34:14;5.20;;;3.90;;
75847;SDS011;65750;47.540;19.090;2023-06-22T10:36:41;5.28;;;4.07;;
75847;SDS011;65750;47.540;19.090;2023-06-22T10:39:08;5.28;;;3.80;;
75847;SDS011;65750;47.540;19.090;2023-06-22T10:41:36;4.78;;;3.70;;
75847;SDS011;65750;47.540;19.090;2023-06-22T10:44:03;5.90;;;3.73;;
75847;SDS011;65750;47.540;19.090;2023-06-22T10:46:30;4.80;;;4.10;;
75847;SDS011;65750;47.540;19.090;2023-06-22T10:48:58;5.20;;;4.28;;
75847;SDS011;65750;47.540;19.090;2023-06-22T10:51:25;6.82;;;4.03;;
75847;SDS011;65750;47.540;19.090;2023-06-22T10:53:53;4.78;;;4.12;;
75847;SDS011;65750;47.540;19.090;2023-06-22T10:56:20;4.90;;;4.00;;
75847;SDS011;65750;47.540;19.090;2023-06-22T10:58:49;5.93;;;4.18;;
75847;SDS011;65750;47.540;19.090;2023-06-22T11:01:16;5.03;;;4.03;;
75847;SDS011;65750;47.540;19.090;2023-06-22T11:03:43;5.22;;;4.28;;
75847;SDS011;65750;47.540;19.090;2023-06-22T11:06:10;5.53;;;4.43;;
75847;SDS011;65750;47.540;19.090;2023-06-22T11:08:37;5.57;;;4.70;;
75847;SDS011;65750;47.540;19.090;2023-06-22T11:11:05;4.95;;;4.32;;
75847;SDS011;65750;47.540;19.090;2023-06-22T11:13:31;7.82;;;5.00;;
75847;SDS011;65750;47.540;19.090;2023-06-22T11:16:00;5.25;;;4.12;;
75847;SDS011;65750;47.540;19.090;2023-06-22T11:18:27;5.90;;;4.35;;
75847;SDS011;65750;47.540;19.090;2023-06-22T11:20:54;5.90;;;5.30;;
75847;SDS011;65750;47.540;19.090;2023-06-22T11:23:21;8.00;;;5.10;;
75847;SDS011;65750;47.540;19.090;2023-06-22T11:25:49;5.70;;;4.70;;
75847;SDS011;65750;47.540;19.090;2023-06-22T11:28:16;9.15;;;5.45;;
75847;SDS011;65750;47.540;19.090;2023-06-22T11:30:43;11.70;;;7.12;;
75847;SDS011;65750;47.540;19.090;2023-06-22T11:33:11;16.07;;;7.67;;
75847;SDS011;65750;47.540;19.090;2023-06-22T11:35:38;18.85;;;9.07;;
75847;SDS011;65750;47.540;19.090;2023-06-22T11:38:05;19.80;;;9.13;;
75847;SDS011;65750;47.540;19.090;2023-06-22T11:40:33;21.92;;;10.60;;
75847;SDS011;65750;47.540;19.090;2023-06-22T11:43:00;27.75;;;11.27;;
75847;SDS011;65750;47.540;19.090;2023-06-22T11:45:27;30.43;;;11.80;;
75847;SDS011;65750;47.540;19.090;2023-06-22T11:47:54;29.17;;;12.93;;
75847;SDS011;65750;47.540;19.090;2023-06-22T11:50:23;25.45;;;12.57;;
75847;SDS011;65750;47.540;19.090;2023-06-22T11:52:50;25.37;;;12.30;;
75847;SDS011;65750;47.540;19.090;2023-06-22T11:55:18;30.37;;;13.68;;
75847;SDS011;65750;47.540;19.090;2023-06-22T11:57:53;26.30;;;12.87;;
75847;SDS011;65750;47.540;19.090;2023-06-22T12:00:21;28.87;;;13.15;;
75847;SDS011;65750;47.540;19.090;2023-06-22T12:02:49;31.30;;;14.02;;
75847;SDS011;65750;47.540;19.090;2023-06-22T12:05:18;28.40;;;13.13;;
75847;SDS011;65750;47.540;19.090;2023-06-22T12:07:47;26.15;;;13.52;;
75847;SDS011;65750;47.540;19.090;2023-06-22T12:10:14;27.17;;;13.73;;
75847;SDS011;65750;47.540;19.090;2023-06-22T12:12:42;32.10;;;14.07;;
75847;SDS011;65750;47.540;19.090;2023-06-22T12:15:09;27.87;;;13.13;;
75847;SDS011;65750;47.540;19.090;2023-06-22T12:17:37;25.45;;;12.55;;
75847;SDS011;65750;47.540;19.090;2023-06-22T12:20:05;25.80;;;13.57;;
75847;SDS011;65750;47.540;19.090;2023-06-22T12:22:33;24.83;;;13.00;;
75847;SDS011;65750;47.540;19.090;2023-06-22T12:25:02;26.40;;;13.45;;
75847;SDS011;65750;47.540;19.090;2023-06-22T12:27:29;23.45;;;13.05;;
75847;SDS011;65750;47.540;19.090;2023-06-22T12:29:56;23.87;;;12.68;;
75847;SDS011;65750;47.540;19.090;2023-06-22T12:32:23;23.50;;;12.02;;
75847;SDS011;65750;47.540;19.090;2023-06-22T12:34:50;26.43;;;13.47;;
75847;SDS011;65750;47.540;19.090;2023-06-22T12:37:18;22.00;;;12.27;;
75847;SDS011;65750;47.540;19.090;2023-06-22T12:39:45;21.37;;;12.30;;
75847;SDS011;65750;47.540;19.090;2023-06-22T12:42:13;20.58;;;12.13;;
75847;SDS011;65750;47.540;19.090;2023-06-22T12:44:41;22.45;;;12.45;;
75847;SDS011;65750;47.540;19.090;2023-06-22T12:47:08;21.17;;;11.97;;
75847;SDS011;65750;47.540;19.090;2023-06-22T12:49:36;20.42;;;12.57;;
75847;SDS011;65750;47.540;19.090;2023-06-22T12:52:08;21.05;;;12.18;;
75847;SDS011;65750;47.540;19.090;2023-06-22T12:54:35;19.12;;;11.70;;
75847;SDS011;65750;47.540;19.090;2023-06-22T12:57:02;19.17;;;12.15;;
75847;SDS011;65750;47.540;19.090;2023-06-22T12:59:31;19.17;;;11.47;;
75847;SDS011;65750;47.540;19.090;2023-06-22T13:01:58;18.65;;;12.27;;
75847;SDS011;65750;47.540;19.090;2023-06-22T13:04:25;20.20;;;11.65;;
75847;SDS011;65750;47.540;19.090;2023-06-22T13:06:52;21.33;;;12.35;;
75847;SDS011;65750;47.540;19.090;2023-06-22T13:09:19;16.50;;;11.00;;
75847;SDS011;65750;47.540;19.090;2023-06-22T13:11:46;17.60;;;11.13;;
75847;SDS011;65750;47.540;19.090;2023-06-22T13:14:14;18.33;;;11.52;;
75847;SDS011;65750;47.540;19.090;2023-06-22T13:16:43;21.48;;;12.05;;
75847;SDS011;65750;47.540;19.090;2023-06-22T13:19:10;16.08;;;10.48;;
75847;SDS011;65750;47.540;19.090;2023-06-22T13:21:37;17.45;;;11.02;;
75847;SDS011;65750;47.540;19.090;2023-06-22T13:24:05;15.77;;;10.67;;
75847;SDS011;65750;47.540;19.090;2023-06-22T13:26:33;18.58;;;11.25;;
75847;SDS011;65750;47.540;19.090;2023-06-22T13:28:59;17.55;;;11.32;;
75847;SDS011;65750;47.540;19.090;2023-06-22T13:31:27;15.23;;;10.38;;
75847;SDS011;65750;47.540;19.090;2023-06-22T13:33:56;16.35;;;10.70;;
75847;SDS011;65750;47.540;19.090;2023-06-22T13:36:23;19.53;;;11.10;;
75847;SDS011;65750;47.540;19.090;2023-06-22T13:38:50;17.10;;;10.93;;
75847;SDS011;65750;47.540;19.090;2023-06-22T13:41:17;14.32;;;10.45;;
75847;SDS011;65750;47.540;19.090;2023-06-22T13:43:44;15.55;;;10.23;;
75847;SDS011;65750;47.540;19.090;2023-06-22T13:46:11;15.65;;;10.48;;
75847;SDS011;65750;47.540;19.090;2023-06-22T13:48:38;15.50;;;10.93;;
75847;SDS011;65750;47.540;19.090;2023-06-22T13:51:07;12.60;;;10.15;;
75847;SDS011;65750;47.540;19.090;2023-06-22T13:53:34;13.65;;;10.27;;
75847;SDS011;65750;47.540;19.090;2023-06-22T13:56:01;14.20;;;10.23;;
75847;SDS011;65750;47.540;19.090;2023-06-22T13:58:28;13.70;;;10.00;;
75847;SDS011;65750;47.540;19.090;2023-06-22T14:00:55;13.60;;;9.67;;
75847;SDS011;65750;47.540;19.090;2023-06-22T14:03:22;14.02;;;10.02;;
75847;SDS011;65750;47.540;19.090;2023-06-22T14:05:50;13.50;;;9.50;;
75847;SDS011;65750;47.540;19.090;2023-06-22T14:08:20;14.85;;;10.18;;
75847;SDS011;65750;47.540;19.090;2023-06-22T14:10:49;12.10;;;9.75;;
75847;SDS011;65750;47.540;19.090;2023-06-22T14:13:16;13.47;;;9.77;;
75847;SDS011;65750;47.540;19.090;2023-06-22T14:15:43;13.30;;;9.40;;
75847;SDS011;65750;47.540;19.090;2023-06-22T14:18:13;14.98;;;11.68;;
75847;SDS011;65750;47.540;19.090;2023-06-22T14:20:40;14.75;;;9.90;;
75847;SDS011;65750;47.540;19.090;2023-06-22T14:23:07;12.20;;;9.32;;
75847;SDS011;65750;47.540;19.090;2023-06-22T14:25:36;13.00;;;9.13;;
75847;SDS011;65750;47.540;19.090;2023-06-22T14:28:03;13.38;;;9.80;;
75847;SDS011;65750;47.540;19.090;2023-06-22T14:30:30;11.85;;;9.43;;
75847;SDS011;65750;47.540;19.090;2023-06-22T14:32:57;11.98;;;9.70;;